Flight Track Log - Related Links

Times and Time Zones

All times are in EDT time to prevent confusion due to time zone crossing. See the AAL961 flight status page for this flight to view local times or setup timezone preferences in your user account.


Time Position Orientation Groundspeed Altitude Reporting Facility
EDT Latitude Longitude Course Direction KTS MPH feet Rate Location/Type
Fri 05:46:41 PM 25.7983 -80.2722 105° East 136 157 1,000  Level Miami Center
Fri 05:47:58 PM 25.7769 -80.1956 107° East 231 266 2,700 1,918 Climbing Miami Center
Fri 05:48:18 PM 25.7672 -80.1675 111° Southeast 270 311 4,100 2,600 Climbing Miami Center
Fri 05:48:58 PM 25.7642 -80.1167 94° East 275 316 5,300 2,613 Climbing Miami Center
Fri 05:49:00 PM 25.6775 -79.8819 104° East  Level FlightAware Approximate
Fri 05:49:20 PM 25.7503 -80.0839 115° Southeast 285 328 6,800  Level Miami Center
Fri 05:49:58 PM 25.7408 -80.0353 102° East 297 342 8,100 2,327 Climbing Miami Center
Fri 05:50:00 PM 25.6449 -79.7463 105° East  Level FlightAware Approximate
Fri 05:50:58 PM 25.7178 -79.9425 105° East 304 350 10,600  Level Miami Center
Fri 05:51:00 PM 25.6242 -79.6089 104° East  Level FlightAware Approximate
Fri 05:51:58 PM 25.6947 -79.8381 104° East 318 366 12,800  Level Miami Center
Fri 05:52:00 PM 25.5932 -79.4728 105° East  Level FlightAware Approximate
Fri 05:52:58 PM 25.6678 -79.7269 105° East 347 399 15,300  Level Miami Center
Fri 05:53:58 PM 25.6386 -79.6156 106° East 366 421 17,400 1,950 Climbing Miami Center
Fri 05:54:58 PM 25.6117 -79.4950 104° East 380 437 19,200 2,050 Climbing Miami Center
Fri 05:55:58 PM 25.5783 -79.3700 106° East 402 463 21,500 1,900 Climbing Miami Center
Fri 05:56:58 PM 25.5364 -79.2494 111° Southeast 408 470 23,000 700 Climbing Miami Center
Fri 05:57:58 PM 25.4586 -79.1467 130° Southeast 414 476 22,900  Descending Miami Center
Fri 05:58:58 PM 25.3786 -79.0439 131° Southeast 432 497 23,000 950 Climbing Miami Center
Fri 05:59:58 PM 25.3389 -78.9053 108° East 425 489 24,800 1,650 Climbing Miami Center
Fri 06:00:58 PM 25.3156 -78.7739 101° East 431 496 26,300 1,400 Climbing Miami Center
Fri 06:01:58 PM 25.2797 -78.6375 106° East 442 509 27,600 1,350 Climbing Miami Center
Fri 06:02:58 PM 25.2414 -78.5017 107° East 454 522 29,000 700 Climbing Miami Center
Fri 06:03:58 PM 25.1761 -78.3744 120° Southeast 454 522 29,000  Level Miami Center
Fri 06:04:58 PM 25.1061 -78.2519 122° Southeast 466 536 29,000 300 Level Miami Center
Fri 06:05:58 PM 25.0044 -78.1614 141° Southeast 466 536 29,600 900 Climbing Miami Center
Fri 06:06:58 PM 24.9092 -78.0594 136° Southeast 466 536 30,800 1,050 Climbing Miami Center
Fri 06:07:58 PM 24.8119 -77.9508 135° Southeast 477 549 31,700 1,000 Climbing Miami Center
Fri 06:08:58 PM 24.7144 -77.8447 135° Southeast 482 555 32,800 1,100 Climbing Miami Center
Fri 06:09:58 PM 24.6169 -77.7367 135° Southeast 487 560 33,900 1,100 Climbing Miami Center
Fri 06:10:58 PM 24.5192 -77.6308 135° Southeast 493 567 35,000 950 Climbing Miami Center
Fri 06:11:58 PM 24.4422 -77.5458 135° Southeast 493 567 35,800 950 Climbing Miami Center
Fri 06:12:58 PM 24.3278 -77.4200 135° Southeast 488 562 36,900 600 Climbing Miami Center
Fri 06:13:58 PM 24.2300 -77.3147 136° Southeast 488 562 37,000 50 Climbing Miami Center
Fri 06:14:58 PM 24.1342 -77.2094 135° Southeast 488 562 37,000  Level Miami Center
Fri 06:15:58 PM 24.0383 -77.1022 134° Southeast 488 562 37,000  Level Miami Center
Fri 06:16:58 PM 23.9422 -76.9975 135° Southeast 488 562 37,000  Level Miami Center
Fri 06:17:58 PM 23.8586 -76.9067 135° Southeast 483 556 37,000  Level Miami Center
Fri 06:18:58 PM 23.7583 -76.8022 136° Southeast 483 556 37,000  Level Miami Center
Fri 06:19:58 PM 23.6622 -76.6978 135° Southeast 483 556 37,000  Level Miami Center
Fri 06:20:58 PM 23.5639 -76.5936 136° Southeast 483 556 37,000  Level Miami Center
Fri 06:21:58 PM 23.4675 -76.4919 136° Southeast 483 556 37,000  Level Miami Center
Fri 06:22:58 PM 23.3711 -76.3881 135° Southeast 483 556 37,000  Level Miami Center
Fri 06:23:58 PM 23.2725 -76.2844 136° Southeast 488 562 37,000  Level Miami Center
Fri 06:24:58 PM 23.1739 -76.1808 136° Southeast 488 562 37,000  Level Miami Center
Fri 06:25:58 PM 23.0750 -76.0753 136° Southeast 488 562 37,000  Level Miami Center
Fri 06:26:58 PM 22.9783 -75.9722 136° Southeast 488 562 37,000  Level Miami Center
Fri 06:27:58 PM 22.8794 -75.8692 136° Southeast 488 562 37,000  Level Miami Center
Fri 06:28:58 PM 22.7828 -75.7639 135° Southeast 488 562 37,000  Level Miami Center
Fri 06:29:58 PM 22.6836 -75.6633 137° Southeast 488 562 37,000  Level Miami Center
Fri 06:30:58 PM 22.5847 -75.5586 136° Southeast 488 562 37,000  Level Miami Center
Fri 06:31:58 PM 22.4875 -75.4561 136° Southeast 488 562 37,000  Level Miami Center
Fri 06:32:58 PM 22.3906 -75.3517 135° Southeast 488 562 37,000  Level Miami Center
Fri 06:33:58 PM 22.2892 -75.2494 137° Southeast 488 562 37,000  Level Miami Center
Fri 06:34:58 PM 22.1900 -75.1478 136° Southeast 488 562 37,000  Level Miami Center
Fri 06:35:58 PM 22.0947 -75.0458 135° Southeast 488 562 37,000  Level Miami Center
Fri 06:36:58 PM 21.9869 -74.9508 141° Southeast 493 567 37,000  Level Miami Center
Fri 06:37:58 PM 21.8833 -74.8494 138° Southeast 500 575 37,000  Level Miami Center
Fri 06:38:58 PM 21.7775 -74.7483 138° Southeast 500 575 37,000  Level Miami Center
Fri 06:39:58 PM 21.6633 -74.6339 137° Southeast 510 587 37,000  Level Miami Center
Fri 06:40:58 PM 21.5572 -74.5331 139° Southeast 510 587 37,000  Level Miami Center
Fri 06:41:58 PM 21.4514 -74.4344 139° Southeast 510 587 37,000 -50 Level Miami Center
Fri 06:42:58 PM 21.3433 -74.3339 139° Southeast 510 587 36,900 -50 Descending Miami Center
Fri 06:43:58 PM 21.2372 -74.2336 139° Southeast 515 593 36,900 50 Level Miami Center
Fri 06:44:58 PM 21.1311 -74.1333 139° Southeast 515 593 37,000 50 Climbing Miami Center
Fri 06:45:58 PM 21.0228 -74.0356 140° Southeast 515 593 37,000  Level Miami Center
Fri 06:46:58 PM 20.9208 -73.9375 138° Southeast 510 587 37,000  Level Miami Center
Fri 06:47:58 PM 20.8125 -73.8378 139° Southeast 510 587 37,000 -50 Level Miami Center
Fri 06:48:58 PM 20.7042 -73.7381 139° Southeast 515 593 36,900  Descending Miami Center
Fri 06:49:58 PM 20.5914 -73.6344 139° Southeast 520 598 37,000 50 Climbing Miami Center
Fri 06:50:58 PM 20.4808 -73.5308 139° Southeast 520 598 37,000 -50 Level Miami Center
Fri 06:51:58 PM 20.3700 -73.4294 139° Southeast 520 598 36,900  Descending Miami Center
Fri 06:52:58 PM 20.2592 -73.3261 139° Southeast 526 605 37,000 50 Climbing Miami Center
Fri 06:53:58 PM 20.1483 -73.2250 139° Southeast 521 600 37,000  Level Miami Center
Fri 06:54:58 PM 20.0356 -73.1289 141° Southeast 527 606 37,000  Level Miami Center
Fri 06:56:00 PM 19.9337 -73.0443 142° Southeast  Level FlightAware Approximate
Fri 07:03:00 PM 19.2425 -72.4743 142° Southeast  Level FlightAware Approximate
Fri 07:04:00 PM 19.1436 -72.3933 142° Southeast  Level FlightAware Approximate
Fri 07:05:00 PM 19.0447 -72.3123 142° Southeast  Level FlightAware Approximate
Fri 07:06:00 PM 18.9458 -72.2315 142° Southeast  Level FlightAware Approximate
Fri 07:07:00 PM 18.8468 -72.1508 142° Southeast  Level FlightAware Approximate
Fri 07:08:00 PM 18.7478 -72.0701 142° Southeast  Level FlightAware Approximate
Fri 07:09:00 PM 18.6487 -71.9896 142° Southeast  Level FlightAware Approximate
Fri 07:10:00 PM 18.5523 -71.9022 137° Southeast  Level FlightAware Approximate
Fri 07:11:00 PM 18.4515 -71.8210 146° Southeast  Level FlightAware Approximate
Fri 07:12:00 PM 18.3455 -71.7466 145° Southeast  Level FlightAware Approximate
Fri 07:13:00 PM 18.2422 -71.6683 144° Southeast  Level FlightAware Approximate
Fri 07:14:00 PM 18.1395 -71.5892 144° Southeast  Level FlightAware Approximate
Fri 07:15:00 PM 18.0367 -71.5101 144° Southeast  Level FlightAware Approximate
Fri 07:16:00 PM 17.9339 -71.4312 144° Southeast  Level FlightAware Approximate
Fri 07:17:00 PM 17.8311 -71.3523 144° Southeast  Level FlightAware Approximate
Fri 07:18:00 PM 17.7282 -71.2736 144° Southeast  Level FlightAware Approximate
Fri 07:19:00 PM 17.6253 -71.1949 144° Southeast  Level FlightAware Approximate
Fri 07:20:00 PM 17.5224 -71.1163 144° Southeast  Level FlightAware Approximate
Fri 07:21:00 PM 17.4195 -71.0378 144° Southeast  Level FlightAware Approximate
Fri 07:22:00 PM 17.3165 -70.9594 144° Southeast  Level FlightAware Approximate
Fri 07:23:00 PM 17.2135 -70.8811 144° Southeast  Level FlightAware Approximate
Fri 07:24:00 PM 17.1104 -70.8029 144° Southeast  Level FlightAware Approximate
Fri 07:25:00 PM 17.0073 -70.7248 144° Southeast  Level FlightAware Approximate
Fri 07:26:00 PM 16.9042 -70.6467 144° Southeast  Level FlightAware Approximate
Fri 07:27:00 PM 16.8011 -70.5687 144° Southeast  Level FlightAware Approximate
Fri 07:28:00 PM 16.6980 -70.4909 144° Southeast  Level FlightAware Approximate
Fri 07:29:00 PM 16.5948 -70.4130 144° Southeast  Level FlightAware Approximate
Fri 07:30:00 PM 16.4915 -70.3353 144° Southeast  Level FlightAware Approximate
Fri 07:31:00 PM 16.3883 -70.2577 144° Southeast  Level FlightAware Approximate
Fri 07:32:00 PM 16.2850 -70.1802 144° Southeast  Level FlightAware Approximate
Fri 07:33:00 PM 16.1817 -70.1027 144° Southeast  Level FlightAware Approximate
Fri 07:34:00 PM 16.0784 -70.0253 144° Southeast  Level FlightAware Approximate
Fri 07:35:00 PM 15.9750 -69.9480 144° Southeast  Level FlightAware Approximate
Fri 07:36:00 PM 15.8717 -69.8706 144° Southeast  Level FlightAware Approximate
Fri 07:37:00 PM 15.7683 -69.7934 144° Southeast  Level FlightAware Approximate
Fri 07:38:00 PM 15.6650 -69.7162 144° Southeast  Level FlightAware Approximate
Fri 07:39:00 PM 15.5616 -69.6391 144° Southeast  Level FlightAware Approximate
Fri 07:40:00 PM 15.4581 -69.5621 144° Southeast  Level FlightAware Approximate
Fri 07:41:00 PM 15.3547 -69.4852 144° Southeast  Level FlightAware Approximate
Fri 07:42:00 PM 15.2512 -69.4083 144° Southeast  Level FlightAware Approximate
Fri 07:43:00 PM 15.1477 -69.3315 144° Southeast  Level FlightAware Approximate
Fri 07:44:00 PM 15.0441 -69.2548 144° Southeast  Level FlightAware Approximate
Fri 07:45:00 PM 14.9406 -69.1782 144° Southeast  Level FlightAware Approximate
Fri 07:46:00 PM 14.8370 -69.1016 144° Southeast  Level FlightAware Approximate
Fri 07:47:00 PM 14.7334 -69.0251 144° Southeast  Level FlightAware Approximate
Fri 07:48:00 PM 14.6297 -68.9487 144° Southeast  Level FlightAware Approximate
Fri 07:49:00 PM 14.5261 -68.8724 145° Southeast  Level FlightAware Approximate
Fri 07:50:00 PM 14.4224 -68.7961 145° Southeast  Level FlightAware Approximate
Fri 07:51:00 PM 14.3187 -68.7199 145° Southeast  Level FlightAware Approximate
Fri 07:52:00 PM 14.2149 -68.6438 145° Southeast  Level FlightAware Approximate
Fri 07:53:00 PM 14.1112 -68.5677 145° Southeast  Level FlightAware Approximate
Fri 07:54:00 PM 14.0074 -68.4917 145° Southeast  Level FlightAware Approximate
Fri 07:55:00 PM 13.9036 -68.4158 145° Southeast  Level FlightAware Approximate
Fri 07:56:00 PM 13.7997 -68.3400 145° Southeast  Level FlightAware Approximate
Fri 07:57:00 PM 13.6959 -68.2642 145° Southeast  Level FlightAware Approximate
Fri 07:58:00 PM 13.5920 -68.1885 145° Southeast  Level FlightAware Approximate
Fri 07:59:00 PM 13.4881 -68.1128 145° Southeast  Level FlightAware Approximate
Fri 08:00:00 PM 13.3842 -68.0372 145° Southeast  Level FlightAware Approximate
Fri 08:01:00 PM 13.2802 -67.9617 145° Southeast  Level FlightAware Approximate
Fri 08:02:00 PM 13.1763 -67.8863 145° Southeast  Level FlightAware Approximate
Fri 08:03:00 PM 13.0723 -67.8109 145° Southeast  Level FlightAware Approximate
Fri 08:04:00 PM 12.9683 -67.7355 145° Southeast  Level FlightAware Approximate
Fri 08:05:00 PM 12.8642 -67.6603 145° Southeast  Level FlightAware Approximate
Fri 08:06:00 PM 12.7597 -67.5857 145° Southeast  Level FlightAware Approximate
Fri 08:07:00 PM 12.6551 -67.5113 145° Southeast  Level FlightAware Approximate
Fri 08:08:00 PM 12.5505 -67.4370 145° Southeast  Level FlightAware Approximate
Fri 08:09:00 PM 12.4459 -67.3627 145° Southeast  Level FlightAware Approximate
Fri 08:10:00 PM 12.3412 -67.2885 145° Southeast  Level FlightAware Approximate
Fri 08:11:00 PM 12.2366 -67.2144 145° Southeast  Level FlightAware Approximate
Fri 08:12:00 PM 12.1319 -67.1403 145° Southeast  Level FlightAware Approximate
Fri 08:13:00 PM 12.0271 -67.0663 145° Southeast  Level FlightAware Approximate
Fri 08:14:00 PM 11.9225 -66.9922 145° Southeast  Level FlightAware Approximate
Fri 08:15:00 PM 11.8182 -66.9175 145° Southeast  Level FlightAware Approximate
Fri 08:16:00 PM 11.7139 -66.8429 145° Southeast  Level FlightAware Approximate
Fri 08:17:00 PM 11.6096 -66.7684 145° Southeast  Level FlightAware Approximate
Fri 08:18:00 PM 11.5053 -66.6939 145° Southeast  Level FlightAware Approximate
Fri 08:19:00 PM 11.4010 -66.6195 145° Southeast  Level FlightAware Approximate
Fri 08:20:00 PM 11.2967 -66.5451 145° Southeast  Level FlightAware Approximate
Fri 08:21:00 PM 11.1923 -66.4708 145° Southeast  Level FlightAware Approximate
Fri 08:22:00 PM 11.0879 -66.3965 145° Southeast  Level FlightAware Approximate
Fri 08:23:00 PM 10.9836 -66.3223 145° Southeast  Level FlightAware Approximate
Fri 08:24:00 PM 10.8792 -66.2481 145° Southeast  Level FlightAware Approximate
Fri 08:25:00 PM 10.7747 -66.1740 145° Southeast  Level FlightAware Approximate
Fri 08:26:00 PM 10.6703 -66.0999 145° Southeast  Level FlightAware Approximate
Fri 08:27:00 PM 10.5658 -66.0259 145° Southeast  Level FlightAware Approximate
Fri 08:28:00 PM 10.4613 -65.9519 145° Southeast  Level FlightAware Approximate
Fri 08:29:00 PM 10.3568 -65.8780 145° Southeast  Level FlightAware Approximate
Fri 08:30:00 PM 10.2523 -65.8041 145° Southeast  Level FlightAware Approximate
Fri 08:31:00 PM 10.1478 -65.7303 145° Southeast  Level FlightAware Approximate
Fri 08:32:00 PM 10.0433 -65.6565 145° Southeast  Level FlightAware Approximate
Fri 08:33:00 PM 9.9387 -65.5828 145° Southeast  Level FlightAware Approximate
Fri 08:34:00 PM 9.8341 -65.5091 145° Southeast  Level FlightAware Approximate
Fri 08:35:00 PM 9.7295 -65.4355 145° Southeast  Level FlightAware Approximate
Fri 08:36:00 PM 9.6249 -65.3619 145° Southeast  Level FlightAware Approximate
Fri 08:37:00 PM 9.5203 -65.2884 145° Southeast  Level FlightAware Approximate
Fri 08:38:00 PM 9.4157 -65.2149 145° Southeast  Level FlightAware Approximate
Fri 08:39:00 PM 9.3110 -65.1414 145° Southeast  Level FlightAware Approximate
Fri 08:40:00 PM 9.2063 -65.0680 145° Southeast  Level FlightAware Approximate
Fri 08:41:00 PM 9.1017 -64.9947 145° Southeast  Level FlightAware Approximate
Fri 08:42:00 PM 8.9970 -64.9213 145° Southeast  Level FlightAware Approximate
Fri 08:43:00 PM 8.8923 -64.8481 145° Southeast  Level FlightAware Approximate
Fri 08:44:00 PM 8.7875 -64.7748 145° Southeast  Level FlightAware Approximate
Fri 08:45:00 PM 8.6828 -64.7016 145° Southeast  Level FlightAware Approximate
Fri 08:46:00 PM 8.5780 -64.6284 145° Southeast  Level FlightAware Approximate
Fri 08:47:00 PM 8.4733 -64.5553 145° Southeast  Level FlightAware Approximate
Fri 08:48:00 PM 8.3685 -64.4823 145° Southeast  Level FlightAware Approximate
Fri 08:49:00 PM 8.2637 -64.4092 145° Southeast  Level FlightAware Approximate
Fri 08:50:00 PM 8.1589 -64.3362 145° Southeast  Level FlightAware Approximate
Fri 08:51:00 PM 8.0540 -64.2633 145° Southeast  Level FlightAware Approximate
Fri 08:52:00 PM 7.9492 -64.1903 145° Southeast  Level FlightAware Approximate
Fri 08:53:00 PM 7.8443 -64.1175 145° Southeast  Level FlightAware Approximate
Fri 08:54:00 PM 7.7395 -64.0446 145° Southeast  Level FlightAware Approximate
Fri 08:55:00 PM 7.6346 -63.9718 145° Southeast  Level FlightAware Approximate
Fri 08:56:00 PM 7.5297 -63.8990 145° Southeast  Level FlightAware Approximate
Fri 08:57:00 PM 7.4248 -63.8263 145° Southeast  Level FlightAware Approximate
Fri 08:58:00 PM 7.3199 -63.7536 145° Southeast  Level FlightAware Approximate
Fri 08:59:00 PM 7.2150 -63.6809 146° Southeast  Level FlightAware Approximate
Fri 09:00:00 PM 7.1101 -63.6083 146° Southeast  Level FlightAware Approximate
Fri 09:01:00 PM 7.0051 -63.5357 146° Southeast  Level FlightAware Approximate
Fri 09:02:00 PM 6.9002 -63.4631 146° Southeast  Level FlightAware Approximate
Fri 09:03:00 PM 6.7952 -63.3906 146° Southeast  Level FlightAware Approximate
Fri 09:04:00 PM 6.6902 -63.3181 146° Southeast  Level FlightAware Approximate
Fri 09:05:00 PM 6.5852 -63.2456 146° Southeast  Level FlightAware Approximate
Fri 09:06:00 PM 6.4802 -63.1731 146° Southeast  Level FlightAware Approximate
Fri 09:07:00 PM 6.3752 -63.1007 146° Southeast  Level FlightAware Approximate
Fri 09:08:00 PM 6.2703 -63.0281 145° Southeast  Level FlightAware Approximate
Fri 09:09:00 PM 6.1655 -62.9554 145° Southeast  Level FlightAware Approximate
Fri 09:10:00 PM 6.0607 -62.8828 145° Southeast  Level FlightAware Approximate
Fri 09:11:00 PM 5.9559 -62.8102 145° Southeast  Level FlightAware Approximate
Fri 09:12:00 PM 5.8510 -62.7376 145° Southeast  Level FlightAware Approximate
Fri 09:13:00 PM 5.7462 -62.6651 145° Southeast  Level FlightAware Approximate
Fri 09:14:00 PM 5.6413 -62.5926 145° Southeast  Level FlightAware Approximate
Fri 09:15:00 PM 5.5364 -62.5201 145° Southeast  Level FlightAware Approximate
Fri 09:16:00 PM 5.4315 -62.4476 145° Southeast  Level FlightAware Approximate
Fri 09:17:00 PM 5.3266 -62.3752 145° Southeast  Level FlightAware Approximate
Fri 09:18:00 PM 5.2217 -62.3027 145° Southeast  Level FlightAware Approximate
Fri 09:19:00 PM 5.1168 -62.2304 145° Southeast  Level FlightAware Approximate
Fri 09:20:00 PM 5.0119 -62.1580 146° Southeast  Level FlightAware Approximate
Fri 09:21:00 PM 4.9069 -62.0857 146° Southeast  Level FlightAware Approximate
Fri 09:22:00 PM 4.8020 -62.0133 146° Southeast  Level FlightAware Approximate
Fri 09:23:00 PM 4.6971 -61.9410 146° Southeast  Level FlightAware Approximate
Fri 09:24:00 PM 4.5921 -61.8688 146° Southeast  Level FlightAware Approximate
Fri 09:25:00 PM 4.4871 -61.7965 146° Southeast  Level FlightAware Approximate
Fri 09:26:00 PM 4.3822 -61.7243 146° Southeast  Level FlightAware Approximate
Fri 09:27:00 PM 4.2772 -61.6520 146° Southeast  Level FlightAware Approximate
Fri 09:28:00 PM 4.1719 -61.5802 146° Southeast  Level FlightAware Approximate
Fri 09:29:00 PM 4.0665 -61.5086 146° Southeast  Level FlightAware Approximate
Fri 09:30:00 PM 3.9612 -61.4370 146° Southeast  Level FlightAware Approximate
Fri 09:31:00 PM 3.8558 -61.3655 146° Southeast  Level FlightAware Approximate
Fri 09:32:00 PM 3.7504 -61.2939 146° Southeast  Level FlightAware Approximate
Fri 09:33:00 PM 3.6450 -61.2224 146° Southeast  Level FlightAware Approximate
Fri 09:34:00 PM 3.5396 -61.1508 146° Southeast  Level FlightAware Approximate
Fri 09:35:00 PM 3.4342 -61.0793 146° Southeast  Level FlightAware Approximate
Fri 09:36:00 PM 3.3288 -61.0078 146° Southeast  Level FlightAware Approximate
Fri 09:37:00 PM 3.2234 -60.9364 146° Southeast  Level FlightAware Approximate
Fri 09:38:00 PM 3.1179 -60.8649 146° Southeast  Level FlightAware Approximate
Fri 09:39:00 PM 3.0125 -60.7934 146° Southeast  Level FlightAware Approximate
Fri 09:40:00 PM 2.9071 -60.7220 146° Southeast  Level FlightAware Approximate
Fri 09:41:00 PM 2.7920 -60.6768 174° South  Level FlightAware Approximate
Fri 09:42:00 PM 2.6655 -60.6627 174° South  Level FlightAware Approximate
Fri 09:43:00 PM 2.5390 -60.6485 174° South  Level FlightAware Approximate
Fri 09:44:00 PM 2.4125 -60.6344 174° South  Level FlightAware Approximate
Fri 09:45:00 PM 2.2860 -60.6203 174° South  Level FlightAware Approximate
Fri 09:46:00 PM 2.1595 -60.6061 174° South  Level FlightAware Approximate
Fri 09:47:00 PM 2.0329 -60.5920 174° South  Level FlightAware Approximate
Fri 09:48:00 PM 1.9064 -60.5779 174° South  Level FlightAware Approximate
Fri 09:49:00 PM 1.7799 -60.5637 174° South  Level FlightAware Approximate
Fri 09:50:00 PM 1.6534 -60.5496 174° South  Level FlightAware Approximate
Fri 09:51:00 PM 1.5269 -60.5355 174° South  Level FlightAware Approximate
Fri 09:52:00 PM 1.4004 -60.5213 174° South  Level FlightAware Approximate
Fri 09:53:00 PM 1.2739 -60.5072 174° South  Level FlightAware Approximate
Fri 09:54:00 PM 1.1474 -60.4931 174° South  Level FlightAware Approximate
Fri 09:55:00 PM 1.0209 -60.4790 174° South  Level FlightAware Approximate
Fri 09:56:00 PM 0.8943 -60.4648 174° South  Level FlightAware Approximate
Fri 09:57:00 PM 0.7678 -60.4507 174° South  Level FlightAware Approximate
Fri 09:58:00 PM 0.6413 -60.4366 174° South  Level FlightAware Approximate
Fri 09:59:00 PM 0.5148 -60.4225 174° South  Level FlightAware Approximate
Fri 10:00:00 PM 0.3883 -60.4084 174° South  Level FlightAware Approximate
Fri 10:01:00 PM 0.2618 -60.3942 174° South  Level FlightAware Approximate
Fri 10:02:00 PM 0.1353 -60.3801 174° South  Level FlightAware Approximate
Fri 10:03:00 PM 0.0088 -60.3660 174° South  Level FlightAware Approximate
Fri 10:04:00 PM -0.1177 -60.3519 174° South  Level FlightAware Approximate
Fri 10:05:00 PM -0.2442 -60.3378 174° South  Level FlightAware Approximate
Fri 10:06:00 PM -0.3708 -60.3237 174° South  Level FlightAware Approximate
Fri 10:07:00 PM -0.4975 -60.3108 175° South  Level FlightAware Approximate
Fri 10:08:00 PM -0.6242 -60.2992 174° South  Level FlightAware Approximate
Fri 10:09:00 PM -0.7508 -60.2851 174° South  Level FlightAware Approximate
Fri 10:10:00 PM -0.8773 -60.2710 174° South  Level FlightAware Approximate
Fri 10:11:00 PM -1.0038 -60.2570 174° South  Level FlightAware Approximate
Fri 10:12:00 PM -1.1307 -60.2500 180° South  Level FlightAware Approximate
Fri 10:13:00 PM -1.2573 -60.2362 174° South  Level FlightAware Approximate
Fri 10:14:00 PM -1.3838 -60.2222 174° South  Level FlightAware Approximate
Fri 10:15:00 PM -1.5102 -60.2076 173° South  Level FlightAware Approximate
Fri 10:16:00 PM -1.6367 -60.1927 173° South  Level FlightAware Approximate
Fri 10:17:00 PM -1.7632 -60.1788 174° South  Level FlightAware Approximate
Fri 10:18:00 PM -1.8899 -60.1666 174° South  Level FlightAware Approximate
Fri 10:19:00 PM -2.0166 -60.1543 174° South  Level FlightAware Approximate
Fri 10:20:00 PM -2.1433 -60.1421 174° South  Level FlightAware Approximate
Fri 10:21:00 PM -2.2700 -60.1297 174° South  Level FlightAware Approximate
Fri 10:22:00 PM -2.3967 -60.1170 174° South  Level FlightAware Approximate
Fri 10:23:00 PM -2.5225 -60.0978 171° South  Level FlightAware Approximate
Fri 10:24:00 PM -2.6486 -60.0801 174° South  Level FlightAware Approximate
Fri 10:25:00 PM -2.7752 -60.0675 174° South  Level FlightAware Approximate
Fri 10:26:00 PM -2.9018 -60.0596 169° South  Level FlightAware Approximate
Fri 10:27:00 PM -3.0167 -60.0500 180° South  Level FlightAware Approximate
Fri 10:28:00 PM -3.0386 -60.0497 180° South  Level Estimated
Fri 10:29:00 PM -3.0386 -60.0497 180° South  Level Estimated
Fri 10:30:00 PM -3.0386 -60.0497 180° South  Level Estimated

Login

Don't have an account? Register now (free) for customized features, flight alerts, and more!